sensor_id;sensor_type;location;lat;lon;timestamp;pressure;altitude;pressure_sealevel;temperature
7389;BMP180;3735;50.136;11.062;2023-06-24T00:00:07;98992.00;;;14.20
7389;BMP180;3735;50.136;11.062;2023-06-24T00:02:34;99016.00;;;14.20
7389;BMP180;3735;50.136;11.062;2023-06-24T00:05:04;99006.00;;;14.20
7389;BMP180;3735;50.136;11.062;2023-06-24T00:07:30;99011.00;;;14.20
7389;BMP180;3735;50.136;11.062;2023-06-24T00:09:56;99013.00;;;14.20
7389;BMP180;3735;50.136;11.062;2023-06-24T00:12:21;99006.00;;;14.20
7389;BMP180;3735;50.136;11.062;2023-06-24T00:14:50;99002.00;;;14.10
7389;BMP180;3735;50.136;11.062;2023-06-24T00:17:16;99014.00;;;14.10
7389;BMP180;3735;50.136;11.062;2023-06-24T00:19:44;99018.00;;;14.10
7389;BMP180;3735;50.136;11.062;2023-06-24T00:22:10;99012.00;;;14.00
7389;BMP180;3735;50.136;11.062;2023-06-24T00:24:35;99018.00;;;14.00
7389;BMP180;3735;50.136;11.062;2023-06-24T00:27:01;99015.00;;;14.00
7389;BMP180;3735;50.136;11.062;2023-06-24T00:29:27;99012.00;;;13.90
7389;BMP180;3735;50.136;11.062;2023-06-24T00:31:53;99009.00;;;13.90
7389;BMP180;3735;50.136;11.062;2023-06-24T00:34:18;99016.00;;;13.80
7389;BMP180;3735;50.136;11.062;2023-06-24T00:36:49;99018.00;;;13.80
7389;BMP180;3735;50.136;11.062;2023-06-24T00:39:15;99030.00;;;13.80
7389;BMP180;3735;50.136;11.062;2023-06-24T00:41:40;99013.00;;;13.70
7389;BMP180;3735;50.136;11.062;2023-06-24T00:44:06;99013.00;;;13.80
7389;BMP180;3735;50.136;11.062;2023-06-24T00:46:32;99006.00;;;13.80
7389;BMP180;3735;50.136;11.062;2023-06-24T00:48:59;99014.00;;;13.80
7389;BMP180;3735;50.136;11.062;2023-06-24T00:51:26;99007.00;;;13.80
7389;BMP180;3735;50.136;11.062;2023-06-24T00:53:57;99006.00;;;13.80
7389;BMP180;3735;50.136;11.062;2023-06-24T00:56:30;99006.00;;;13.80
7389;BMP180;3735;50.136;11.062;2023-06-24T00:58:58;99007.00;;;13.70
7389;BMP180;3735;50.136;11.062;2023-06-24T01:01:30;98999.00;;;13.60
7389;BMP180;3735;50.136;11.062;2023-06-24T01:04:00;98997.00;;;13.60
7389;BMP180;3735;50.136;11.062;2023-06-24T01:06:28;99002.00;;;13.50
7389;BMP180;3735;50.136;11.062;2023-06-24T01:08:58;99000.00;;;13.50
7389;BMP180;3735;50.136;11.062;2023-06-24T01:11:26;99001.00;;;13.40
7389;BMP180;3735;50.136;11.062;2023-06-24T01:13:53;98991.00;;;13.40
7389;BMP180;3735;50.136;11.062;2023-06-24T01:33:14;98974.00;;;13.10
7389;BMP180;3735;50.136;11.062;2023-06-24T01:35:42;98977.00;;;13.10
7389;BMP180;3735;50.136;11.062;2023-06-24T01:38:47;98971.00;;;13.00
7389;BMP180;3735;50.136;11.062;2023-06-24T01:41:20;98967.00;;;13.00
7389;BMP180;3735;50.136;11.062;2023-06-24T01:43:48;98962.00;;;13.00
7389;BMP180;3735;50.136;11.062;2023-06-24T01:46:22;98967.00;;;13.10
7389;BMP180;3735;50.136;11.062;2023-06-24T01:48:49;98968.00;;;13.00
7389;BMP180;3735;50.136;11.062;2023-06-24T01:51:20;98964.00;;;13.00
7389;BMP180;3735;50.136;11.062;2023-06-24T01:53:54;98958.00;;;13.00
7389;BMP180;3735;50.136;11.062;2023-06-24T01:56:27;98960.00;;;12.90
7389;BMP180;3735;50.136;11.062;2023-06-24T01:58:56;98964.00;;;12.90
7389;BMP180;3735;50.136;11.062;2023-06-24T02:01:24;98951.00;;;12.80
7389;BMP180;3735;50.136;11.062;2023-06-24T02:03:51;98960.00;;;12.80
7389;BMP180;3735;50.136;11.062;2023-06-24T02:06:20;98960.00;;;12.80
7389;BMP180;3735;50.136;11.062;2023-06-24T02:08:50;98967.00;;;12.90
7389;BMP180;3735;50.136;11.062;2023-06-24T02:11:18;98960.00;;;12.80
7389;BMP180;3735;50.136;11.062;2023-06-24T02:13:45;98961.00;;;12.80
7389;BMP180;3735;50.136;11.062;2023-06-24T02:16:13;98959.00;;;12.80
7389;BMP180;3735;50.136;11.062;2023-06-24T02:18:40;98955.00;;;12.80
7389;BMP180;3735;50.136;11.062;2023-06-24T02:21:09;98954.00;;;12.90
7389;BMP180;3735;50.136;11.062;2023-06-24T02:23:37;98950.00;;;13.00
7389;BMP180;3735;50.136;11.062;2023-06-24T02:26:06;98954.00;;;13.10
7389;BMP180;3735;50.136;11.062;2023-06-24T02:28:33;98955.00;;;13.20
7389;BMP180;3735;50.136;11.062;2023-06-24T02:31:00;98947.00;;;13.30
7389;BMP180;3735;50.136;11.062;2023-06-24T02:33:27;98941.00;;;13.30
7389;BMP180;3735;50.136;11.062;2023-06-24T02:35:53;98949.00;;;13.40
7389;BMP180;3735;50.136;11.062;2023-06-24T02:38:18;98939.00;;;13.50
7389;BMP180;3735;50.136;11.062;2023-06-24T02:40:48;98947.00;;;13.50
7389;BMP180;3735;50.136;11.062;2023-06-24T02:43:15;98929.00;;;13.60
7389;BMP180;3735;50.136;11.062;2023-06-24T02:45:41;98936.00;;;13.60
7389;BMP180;3735;50.136;11.062;2023-06-24T02:48:10;98951.00;;;13.60
7389;BMP180;3735;50.136;11.062;2023-06-24T02:50:38;98951.00;;;13.60
7389;BMP180;3735;50.136;11.062;2023-06-24T02:53:07;98952.00;;;13.60
7389;BMP180;3735;50.136;11.062;2023-06-24T02:55:34;98955.00;;;13.60
7389;BMP180;3735;50.136;11.062;2023-06-24T02:58:02;98960.00;;;13.60
7389;BMP180;3735;50.136;11.062;2023-06-24T03:00:28;98959.00;;;13.50
7389;BMP180;3735;50.136;11.062;2023-06-24T03:03:00;98954.00;;;13.50
7389;BMP180;3735;50.136;11.062;2023-06-24T03:05:28;98954.00;;;13.40
7389;BMP180;3735;50.136;11.062;2023-06-24T03:07:54;98967.00;;;13.50
7389;BMP180;3735;50.136;11.062;2023-06-24T03:10:23;98966.00;;;13.50
7389;BMP180;3735;50.136;11.062;2023-06-24T03:12:49;98962.00;;;13.50
7389;BMP180;3735;50.136;11.062;2023-06-24T03:15:14;98967.00;;;13.50
7389;BMP180;3735;50.136;11.062;2023-06-24T03:17:40;98968.00;;;13.50
7389;BMP180;3735;50.136;11.062;2023-06-24T03:20:07;98971.00;;;13.50
7389;BMP180;3735;50.136;11.062;2023-06-24T03:22:34;98978.00;;;13.50
7389;BMP180;3735;50.136;11.062;2023-06-24T03:24:59;98976.00;;;13.50
7389;BMP180;3735;50.136;11.062;2023-06-24T03:27:25;98978.00;;;13.40
7389;BMP180;3735;50.136;11.062;2023-06-24T03:29:51;98981.00;;;13.50
7389;BMP180;3735;50.136;11.062;2023-06-24T03:32:17;98979.00;;;13.60
7389;BMP180;3735;50.136;11.062;2023-06-24T03:34:42;98982.00;;;13.60
7389;BMP180;3735;50.136;11.062;2023-06-24T03:37:08;98973.00;;;13.70
7389;BMP180;3735;50.136;11.062;2023-06-24T03:39:34;98986.00;;;13.70
7389;BMP180;3735;50.136;11.062;2023-06-24T03:42:00;98991.00;;;13.80
7389;BMP180;3735;50.136;11.062;2023-06-24T03:44:26;98995.00;;;13.80
7389;BMP180;3735;50.136;11.062;2023-06-24T03:46:52;98992.00;;;13.70
7389;BMP180;3735;50.136;11.062;2023-06-24T03:49:18;98986.00;;;13.70
7389;BMP180;3735;50.136;11.062;2023-06-24T03:51:44;98985.00;;;13.70
7389;BMP180;3735;50.136;11.062;2023-06-24T03:54:10;98995.00;;;13.70
7389;BMP180;3735;50.136;11.062;2023-06-24T03:56:35;98992.00;;;13.70
7389;BMP180;3735;50.136;11.062;2023-06-24T03:59:01;98998.00;;;13.70
7389;BMP180;3735;50.136;11.062;2023-06-24T04:01:27;99009.00;;;13.70
7389;BMP180;3735;50.136;11.062;2023-06-24T04:04:00;99012.00;;;13.70
7389;BMP180;3735;50.136;11.062;2023-06-24T04:06:26;98997.00;;;13.70
7389;BMP180;3735;50.136;11.062;2023-06-24T04:08:51;99009.00;;;13.80
7389;BMP180;3735;50.136;11.062;2023-06-24T04:11:18;99015.00;;;13.80
7389;BMP180;3735;50.136;11.062;2023-06-24T04:13:47;99014.00;;;13.80
7389;BMP180;3735;50.136;11.062;2023-06-24T04:16:14;99007.00;;;13.80
7389;BMP180;3735;50.136;11.062;2023-06-24T04:18:40;99024.00;;;13.90
7389;BMP180;3735;50.136;11.062;2023-06-24T04:21:06;99021.00;;;13.90
7389;BMP180;3735;50.136;11.062;2023-06-24T04:23:32;99023.00;;;13.90
7389;BMP180;3735;50.136;11.062;2023-06-24T04:25:59;99030.00;;;14.00
7389;BMP180;3735;50.136;11.062;2023-06-24T04:28:25;99030.00;;;14.00
7389;BMP180;3735;50.136;11.062;2023-06-24T04:30:51;99023.00;;;14.00
7389;BMP180;3735;50.136;11.062;2023-06-24T04:33:17;99029.00;;;14.10
7389;BMP180;3735;50.136;11.062;2023-06-24T04:35:43;99030.00;;;14.20
7389;BMP180;3735;50.136;11.062;2023-06-24T04:38:10;99034.00;;;14.20
7389;BMP180;3735;50.136;11.062;2023-06-24T04:40:36;99034.00;;;14.40
7389;BMP180;3735;50.136;11.062;2023-06-24T04:43:02;99040.00;;;14.40
7389;BMP180;3735;50.136;11.062;2023-06-24T04:45:28;99034.00;;;14.60
7389;BMP180;3735;50.136;11.062;2023-06-24T04:47:54;99039.00;;;14.70
7389;BMP180;3735;50.136;11.062;2023-06-24T04:50:20;99041.00;;;14.80
7389;BMP180;3735;50.136;11.062;2023-06-24T04:52:45;99035.00;;;14.70
7389;BMP180;3735;50.136;11.062;2023-06-24T04:55:17;99041.00;;;14.80
7389;BMP180;3735;50.136;11.062;2023-06-24T04:57:42;99042.00;;;14.80
7389;BMP180;3735;50.136;11.062;2023-06-24T05:00:09;99038.00;;;14.90
7389;BMP180;3735;50.136;11.062;2023-06-24T05:02:34;99042.00;;;14.90
7389;BMP180;3735;50.136;11.062;2023-06-24T05:05:00;99036.00;;;14.90
7389;BMP180;3735;50.136;11.062;2023-06-24T05:07:26;99048.00;;;15.00
7389;BMP180;3735;50.136;11.062;2023-06-24T05:09:51;99056.00;;;15.10
7389;BMP180;3735;50.136;11.062;2023-06-24T05:12:17;99052.00;;;15.20
7389;BMP180;3735;50.136;11.062;2023-06-24T05:14:43;99055.00;;;15.30
7389;BMP180;3735;50.136;11.062;2023-06-24T05:17:09;99056.00;;;15.30
7389;BMP180;3735;50.136;11.062;2023-06-24T05:19:34;99042.00;;;15.40
7389;BMP180;3735;50.136;11.062;2023-06-24T05:22:00;99042.00;;;15.50
7389;BMP180;3735;50.136;11.062;2023-06-24T05:24:26;99041.00;;;15.70
7389;BMP180;3735;50.136;11.062;2023-06-24T05:26:52;99044.00;;;15.90
7389;BMP180;3735;50.136;11.062;2023-06-24T05:29:18;99039.00;;;15.90
7389;BMP180;3735;50.136;11.062;2023-06-24T05:31:44;99048.00;;;15.90
7389;BMP180;3735;50.136;11.062;2023-06-24T05:34:10;99050.00;;;16.10
7389;BMP180;3735;50.136;11.062;2023-06-24T05:36:36;99051.00;;;16.50
7389;BMP180;3735;50.136;11.062;2023-06-24T05:39:02;99043.00;;;16.50
7389;BMP180;3735;50.136;11.062;2023-06-24T05:41:27;99051.00;;;16.70
7389;BMP180;3735;50.136;11.062;2023-06-24T05:44:04;99056.00;;;16.50
7389;BMP180;3735;50.136;11.062;2023-06-24T05:46:31;99053.00;;;16.80
7389;BMP180;3735;50.136;11.062;2023-06-24T05:48:56;99057.00;;;16.90
7389;BMP180;3735;50.136;11.062;2023-06-24T05:51:22;99065.00;;;16.90
7389;BMP180;3735;50.136;11.062;2023-06-24T05:53:48;99060.00;;;17.20
7389;BMP180;3735;50.136;11.062;2023-06-24T05:56:14;99072.00;;;17.10
7389;BMP180;3735;50.136;11.062;2023-06-24T05:58:40;99058.00;;;17.30
7389;BMP180;3735;50.136;11.062;2023-06-24T06:01:08;99069.00;;;17.50
7389;BMP180;3735;50.136;11.062;2023-06-24T06:03:34;99059.00;;;17.70
7389;BMP180;3735;50.136;11.062;2023-06-24T06:06:00;99063.00;;;17.80
7389;BMP180;3735;50.136;11.062;2023-06-24T06:08:26;99055.00;;;18.20
7389;BMP180;3735;50.136;11.062;2023-06-24T06:10:51;99058.00;;;18.60
7389;BMP180;3735;50.136;11.062;2023-06-24T06:13:17;99061.00;;;19.90
7389;BMP180;3735;50.136;11.062;2023-06-24T06:15:43;99059.00;;;21.00
7389;BMP180;3735;50.136;11.062;2023-06-24T06:18:09;99058.00;;;21.40
7389;BMP180;3735;50.136;11.062;2023-06-24T06:20:34;99051.00;;;22.80
7389;BMP180;3735;50.136;11.062;2023-06-24T06:23:00;99053.00;;;24.30
7389;BMP180;3735;50.136;11.062;2023-06-24T06:25:26;99049.00;;;25.80
7389;BMP180;3735;50.136;11.062;2023-06-24T06:27:51;99047.00;;;26.40
7389;BMP180;3735;50.136;11.062;2023-06-24T06:30:17;99047.00;;;25.70
7389;BMP180;3735;50.136;11.062;2023-06-24T06:32:43;99039.00;;;26.10
7389;BMP180;3735;50.136;11.062;2023-06-24T06:35:09;99043.00;;;26.70
7389;BMP180;3735;50.136;11.062;2023-06-24T06:37:35;99038.00;;;27.60
7389;BMP180;3735;50.136;11.062;2023-06-24T06:40:01;99042.00;;;27.90
7389;BMP180;3735;50.136;11.062;2023-06-24T06:42:27;99050.00;;;28.40
7389;BMP180;3735;50.136;11.062;2023-06-24T06:44:53;99050.00;;;28.50
7389;BMP180;3735;50.136;11.062;2023-06-24T06:47:18;99053.00;;;28.20
7389;BMP180;3735;50.136;11.062;2023-06-24T06:49:44;99059.00;;;29.10
7389;BMP180;3735;50.136;11.062;2023-06-24T06:52:10;99063.00;;;28.90
7389;BMP180;3735;50.136;11.062;2023-06-24T06:54:35;99062.00;;;29.50
7389;BMP180;3735;50.136;11.062;2023-06-24T06:57:03;99061.00;;;29.90
7389;BMP180;3735;50.136;11.062;2023-06-24T06:59:30;99065.00;;;30.10
7389;BMP180;3735;50.136;11.062;2023-06-24T07:01:56;99055.00;;;30.70
7389;BMP180;3735;50.136;11.062;2023-06-24T07:04:22;99047.00;;;31.00
7389;BMP180;3735;50.136;11.062;2023-06-24T07:06:48;99048.00;;;30.80
7389;BMP180;3735;50.136;11.062;2023-06-24T07:09:14;99048.00;;;30.70
7389;BMP180;3735;50.136;11.062;2023-06-24T07:11:41;99048.00;;;31.00
7389;BMP180;3735;50.136;11.062;2023-06-24T07:14:07;99055.00;;;31.30
7389;BMP180;3735;50.136;11.062;2023-06-24T07:16:33;99052.00;;;31.30
7389;BMP180;3735;50.136;11.062;2023-06-24T07:18:59;99059.00;;;31.30
7389;BMP180;3735;50.136;11.062;2023-06-24T07:21:25;99056.00;;;31.90
7389;BMP180;3735;50.136;11.062;2023-06-24T07:23:51;99062.00;;;31.80
7389;BMP180;3735;50.136;11.062;2023-06-24T07:26:16;99069.00;;;31.10
7389;BMP180;3735;50.136;11.062;2023-06-24T07:28:42;99069.00;;;31.10
7389;BMP180;3735;50.136;11.062;2023-06-24T07:31:08;99076.00;;;31.50
7389;BMP180;3735;50.136;11.062;2023-06-24T07:33:33;99075.00;;;31.50
7389;BMP180;3735;50.136;11.062;2023-06-24T07:36:00;99072.00;;;31.40
7389;BMP180;3735;50.136;11.062;2023-06-24T07:38:28;99087.00;;;31.40
7389;BMP180;3735;50.136;11.062;2023-06-24T07:40:55;99080.00;;;29.10
7389;BMP180;3735;50.136;11.062;2023-06-24T07:43:21;99089.00;;;31.00
7389;BMP180;3735;50.136;11.062;2023-06-24T07:45:47;99079.00;;;31.90
7389;BMP180;3735;50.136;11.062;2023-06-24T07:48:13;99087.00;;;32.40
7389;BMP180;3735;50.136;11.062;2023-06-24T07:50:39;99085.00;;;32.30
7389;BMP180;3735;50.136;11.062;2023-06-24T07:53:05;99090.00;;;30.90
7389;BMP180;3735;50.136;11.062;2023-06-24T07:55:31;99095.00;;;32.20
7389;BMP180;3735;50.136;11.062;2023-06-24T07:57:57;99091.00;;;33.00
7389;BMP180;3735;50.136;11.062;2023-06-24T08:00:24;99091.00;;;34.10
7389;BMP180;3735;50.136;11.062;2023-06-24T08:02:50;99087.00;;;33.80
7389;BMP180;3735;50.136;11.062;2023-06-24T08:05:16;99094.00;;;33.70
7389;BMP180;3735;50.136;11.062;2023-06-24T08:07:44;99092.00;;;32.30
7389;BMP180;3735;50.136;11.062;2023-06-24T08:10:10;99093.00;;;33.50
7389;BMP180;3735;50.136;11.062;2023-06-24T08:12:36;99095.00;;;33.30
7389;BMP180;3735;50.136;11.062;2023-06-24T08:15:02;99094.00;;;32.50
7389;BMP180;3735;50.136;11.062;2023-06-24T08:17:28;99094.00;;;33.00
7389;BMP180;3735;50.136;11.062;2023-06-24T08:19:54;99093.00;;;33.50
7389;BMP180;3735;50.136;11.062;2023-06-24T08:22:19;99088.00;;;33.70
7389;BMP180;3735;50.136;11.062;2023-06-24T08:24:45;99095.00;;;32.80
7389;BMP180;3735;50.136;11.062;2023-06-24T08:27:11;99102.00;;;33.10
7389;BMP180;3735;50.136;11.062;2023-06-24T08:29:37;99103.00;;;33.60
7389;BMP180;3735;50.136;11.062;2023-06-24T08:32:04;99099.00;;;34.00
7389;BMP180;3735;50.136;11.062;2023-06-24T08:34:32;99106.00;;;33.70
7389;BMP180;3735;50.136;11.062;2023-06-24T08:36:58;99098.00;;;34.20
7389;BMP180;3735;50.136;11.062;2023-06-24T08:39:24;99099.00;;;34.00
7389;BMP180;3735;50.136;11.062;2023-06-24T08:41:50;99098.00;;;32.80
7389;BMP180;3735;50.136;11.062;2023-06-24T08:44:16;99106.00;;;32.40
7389;BMP180;3735;50.136;11.062;2023-06-24T08:46:42;99101.00;;;32.60
7389;BMP180;3735;50.136;11.062;2023-06-24T08:51:51;99098.00;;;33.40
7389;BMP180;3735;50.136;11.062;2023-06-24T08:54:20;99102.00;;;34.00
7389;BMP180;3735;50.136;11.062;2023-06-24T08:56:47;99102.00;;;34.40
7389;BMP180;3735;50.136;11.062;2023-06-24T08:59:12;99099.00;;;34.70
7389;BMP180;3735;50.136;11.062;2023-06-24T09:01:38;99099.00;;;34.60
7389;BMP180;3735;50.136;11.062;2023-06-24T09:04:04;99097.00;;;34.90
7389;BMP180;3735;50.136;11.062;2023-06-24T09:06:31;99097.00;;;35.10
7389;BMP180;3735;50.136;11.062;2023-06-24T09:08:57;99098.00;;;34.40
7389;BMP180;3735;50.136;11.062;2023-06-24T09:11:28;99099.00;;;34.90
7389;BMP180;3735;50.136;11.062;2023-06-24T09:13:58;99090.00;;;34.30
7389;BMP180;3735;50.136;11.062;2023-06-24T09:16:25;99094.00;;;35.10
7389;BMP180;3735;50.136;11.062;2023-06-24T09:18:53;99087.00;;;34.30
7389;BMP180;3735;50.136;11.062;2023-06-24T09:21:25;99091.00;;;34.90
7389;BMP180;3735;50.136;11.062;2023-06-24T09:23:57;99083.00;;;35.10
7389;BMP180;3735;50.136;11.062;2023-06-24T09:26:27;99084.00;;;35.00
7389;BMP180;3735;50.136;11.062;2023-06-24T09:28:57;99087.00;;;35.20
7389;BMP180;3735;50.136;11.062;2023-06-24T09:31:23;99079.00;;;35.00
7389;BMP180;3735;50.136;11.062;2023-06-24T09:33:49;99084.00;;;35.10
7389;BMP180;3735;50.136;11.062;2023-06-24T09:36:16;99077.00;;;35.10
7389;BMP180;3735;50.136;11.062;2023-06-24T09:38:43;99080.00;;;35.10
7389;BMP180;3735;50.136;11.062;2023-06-24T09:41:11;99085.00;;;35.00
7389;BMP180;3735;50.136;11.062;2023-06-24T09:43:43;99088.00;;;35.20
7389;BMP180;3735;50.136;11.062;2023-06-24T09:46:10;99088.00;;;35.10
7389;BMP180;3735;50.136;11.062;2023-06-24T09:48:36;99081.00;;;35.50
7389;BMP180;3735;50.136;11.062;2023-06-24T09:51:04;99073.00;;;35.40
7389;BMP180;3735;50.136;11.062;2023-06-24T09:53:35;99078.00;;;35.40
7389;BMP180;3735;50.136;11.062;2023-06-24T09:56:04;99073.00;;;35.00
7389;BMP180;3735;50.136;11.062;2023-06-24T09:58:34;99075.00;;;35.10
7389;BMP180;3735;50.136;11.062;2023-06-24T10:01:05;99066.00;;;36.10
7389;BMP180;3735;50.136;11.062;2023-06-24T10:03:36;99065.00;;;36.10
7389;BMP180;3735;50.136;11.062;2023-06-24T10:06:03;99066.00;;;36.10
7389;BMP180;3735;50.136;11.062;2023-06-24T10:08:31;99065.00;;;36.30
7389;BMP180;3735;50.136;11.062;2023-06-24T10:11:01;99066.00;;;36.10
7389;BMP180;3735;50.136;11.062;2023-06-24T10:13:28;99064.00;;;36.30
7389;BMP180;3735;50.136;11.062;2023-06-24T10:15:58;99072.00;;;34.90
7389;BMP180;3735;50.136;11.062;2023-06-24T10:18:38;99061.00;;;34.10
7389;BMP180;3735;50.136;11.062;2023-06-24T10:21:06;99059.00;;;34.50
7389;BMP180;3735;50.136;11.062;2023-06-24T10:26:36;99058.00;;;35.40
7389;BMP180;3735;50.136;11.062;2023-06-24T10:29:08;99052.00;;;35.70
7389;BMP180;3735;50.136;11.062;2023-06-24T10:31:54;99043.00;;;34.90
7389;BMP180;3735;50.136;11.062;2023-06-24T10:37:04;99038.00;;;35.10
7389;BMP180;3735;50.136;11.062;2023-06-24T10:39:36;99042.00;;;34.80
7389;BMP180;3735;50.136;11.062;2023-06-24T10:42:31;99035.00;;;35.40
7389;BMP180;3735;50.136;11.062;2023-06-24T10:47:37;99035.00;;;35.70
7389;BMP180;3735;50.136;11.062;2023-06-24T10:50:05;99030.00;;;35.40
7389;BMP180;3735;50.136;11.062;2023-06-24T10:52:32;99028.00;;;35.40
7389;BMP180;3735;50.136;11.062;2023-06-24T10:54:58;99029.00;;;35.90
7389;BMP180;3735;50.136;11.062;2023-06-24T10:57:26;99021.00;;;35.70
7389;BMP180;3735;50.136;11.062;2023-06-24T10:59:55;99017.00;;;35.00
7389;BMP180;3735;50.136;11.062;2023-06-24T11:02:26;99023.00;;;35.70
7389;BMP180;3735;50.136;11.062;2023-06-24T11:04:54;99022.00;;;36.10
7389;BMP180;3735;50.136;11.062;2023-06-24T11:07:23;99026.00;;;36.70
7389;BMP180;3735;50.136;11.062;2023-06-24T11:09:56;99018.00;;;35.70
7389;BMP180;3735;50.136;11.062;2023-06-24T11:12:27;99014.00;;;36.10
7389;BMP180;3735;50.136;11.062;2023-06-24T11:15:06;99007.00;;;35.90
7389;BMP180;3735;50.136;11.062;2023-06-24T11:17:37;99013.00;;;36.10
7389;BMP180;3735;50.136;11.062;2023-06-24T11:20:11;99010.00;;;35.60
7389;BMP180;3735;50.136;11.062;2023-06-24T11:22:39;98993.00;;;35.70
7389;BMP180;3735;50.136;11.062;2023-06-24T11:25:12;99002.00;;;35.90
7389;BMP180;3735;50.136;11.062;2023-06-24T11:27:39;98998.00;;;36.40
7389;BMP180;3735;50.136;11.062;2023-06-24T11:30:06;98999.00;;;36.80
7389;BMP180;3735;50.136;11.062;2023-06-24T11:32:40;99001.00;;;37.10
7389;BMP180;3735;50.136;11.062;2023-06-24T11:35:09;99006.00;;;36.90
7389;BMP180;3735;50.136;11.062;2023-06-24T11:37:35;99002.00;;;37.00
7389;BMP180;3735;50.136;11.062;2023-06-24T11:40:07;99003.00;;;36.70
7389;BMP180;3735;50.136;11.062;2023-06-24T11:42:39;98995.00;;;35.80
7389;BMP180;3735;50.136;11.062;2023-06-24T11:45:08;98991.00;;;36.50
7389;BMP180;3735;50.136;11.062;2023-06-24T11:47:38;98982.00;;;36.30
7389;BMP180;3735;50.136;11.062;2023-06-24T11:50:06;98988.00;;;36.80
7389;BMP180;3735;50.136;11.062;2023-06-24T11:55:02;98986.00;;;35.70
7389;BMP180;3735;50.136;11.062;2023-06-24T12:00:31;98987.00;;;35.10
7389;BMP180;3735;50.136;11.062;2023-06-24T12:03:08;98976.00;;;36.20
7389;BMP180;3735;50.136;11.062;2023-06-24T12:05:36;98968.00;;;36.80
7389;BMP180;3735;50.136;11.062;2023-06-24T12:08:04;98974.00;;;36.40
7389;BMP180;3735;50.136;11.062;2023-06-24T12:10:32;98974.00;;;36.50
7389;BMP180;3735;50.136;11.062;2023-06-24T12:13:00;98968.00;;;36.70
7389;BMP180;3735;50.136;11.062;2023-06-24T12:15:27;98966.00;;;36.80
7389;BMP180;3735;50.136;11.062;2023-06-24T12:17:53;98951.00;;;36.80
7389;BMP180;3735;50.136;11.062;2023-06-24T12:20:20;98956.00;;;36.50
7389;BMP180;3735;50.136;11.062;2023-06-24T12:22:47;98955.00;;;36.20
7389;BMP180;3735;50.136;11.062;2023-06-24T12:25:14;98954.00;;;36.60
7389;BMP180;3735;50.136;11.062;2023-06-24T12:27:42;98957.00;;;36.90
7389;BMP180;3735;50.136;11.062;2023-06-24T12:30:10;98958.00;;;37.50
7389;BMP180;3735;50.136;11.062;2023-06-24T12:32:37;98950.00;;;37.70
7389;BMP180;3735;50.136;11.062;2023-06-24T12:35:04;98958.00;;;37.70
7389;BMP180;3735;50.136;11.062;2023-06-24T12:37:33;98955.00;;;36.30
7389;BMP180;3735;50.136;11.062;2023-06-24T12:40:00;98949.00;;;35.50
7389;BMP180;3735;50.136;11.062;2023-06-24T12:42:27;98947.00;;;35.30
7389;BMP180;3735;50.136;11.062;2023-06-24T12:44:53;98949.00;;;34.10
7389;BMP180;3735;50.136;11.062;2023-06-24T12:47:20;98946.00;;;33.00
7389;BMP180;3735;50.136;11.062;2023-06-24T12:49:45;98941.00;;;32.50
7389;BMP180;3735;50.136;11.062;2023-06-24T12:52:13;98941.00;;;33.20
7389;BMP180;3735;50.136;11.062;2023-06-24T12:54:39;98937.00;;;34.20
7389;BMP180;3735;50.136;11.062;2023-06-24T12:57:05;98934.00;;;34.80
7389;BMP180;3735;50.136;11.062;2023-06-24T12:59:31;98932.00;;;35.50
7389;BMP180;3735;50.136;11.062;2023-06-24T13:01:57;98932.00;;;36.20
7389;BMP180;3735;50.136;11.062;2023-06-24T13:04:23;98935.00;;;36.90
7389;BMP180;3735;50.136;11.062;2023-06-24T13:06:53;98940.00;;;37.10
7389;BMP180;3735;50.136;11.062;2023-06-24T13:09:19;98934.00;;;36.30
7389;BMP180;3735;50.136;11.062;2023-06-24T13:11:45;98942.00;;;36.80
7389;BMP180;3735;50.136;11.062;2023-06-24T13:14:13;98935.00;;;36.30
7389;BMP180;3735;50.136;11.062;2023-06-24T13:16:39;98940.00;;;36.30
7389;BMP180;3735;50.136;11.062;2023-06-24T13:19:05;98938.00;;;36.50
7389;BMP180;3735;50.136;11.062;2023-06-24T13:21:31;98937.00;;;36.90
7389;BMP180;3735;50.136;11.062;2023-06-24T13:23:57;98944.00;;;37.10
7389;BMP180;3735;50.136;11.062;2023-06-24T13:26:23;98942.00;;;37.50
7389;BMP180;3735;50.136;11.062;2023-06-24T13:28:50;98938.00;;;37.40
7389;BMP180;3735;50.136;11.062;2023-06-24T13:31:16;98932.00;;;37.40
7389;BMP180;3735;50.136;11.062;2023-06-24T13:33:41;98931.00;;;37.00
7389;BMP180;3735;50.136;11.062;2023-06-24T13:36:11;98932.00;;;37.40
7389;BMP180;3735;50.136;11.062;2023-06-24T13:38:39;98930.00;;;37.00
7389;BMP180;3735;50.136;11.062;2023-06-24T13:41:04;98931.00;;;37.10
7389;BMP180;3735;50.136;11.062;2023-06-24T13:43:30;98922.00;;;37.10
7389;BMP180;3735;50.136;11.062;2023-06-24T13:45:56;98923.00;;;36.50
7389;BMP180;3735;50.136;11.062;2023-06-24T13:48:23;98926.00;;;36.40
7389;BMP180;3735;50.136;11.062;2023-06-24T13:50:48;98919.00;;;36.50
7389;BMP180;3735;50.136;11.062;2023-06-24T13:53:14;98921.00;;;36.90
7389;BMP180;3735;50.136;11.062;2023-06-24T13:55:40;98914.00;;;35.60
7389;BMP180;3735;50.136;11.062;2023-06-24T13:58:06;98912.00;;;35.60
7389;BMP180;3735;50.136;11.062;2023-06-24T14:00:31;98917.00;;;35.80
7389;BMP180;3735;50.136;11.062;2023-06-24T14:02:57;98899.00;;;35.90
7389;BMP180;3735;50.136;11.062;2023-06-24T14:05:23;98909.00;;;34.80
7389;BMP180;3735;50.136;11.062;2023-06-24T14:07:48;98909.00;;;34.90
7389;BMP180;3735;50.136;11.062;2023-06-24T14:10:15;98910.00;;;34.80
7389;BMP180;3735;50.136;11.062;2023-06-24T14:12:40;98907.00;;;36.00
7389;BMP180;3735;50.136;11.062;2023-06-24T14:15:09;98902.00;;;35.30
7389;BMP180;3735;50.136;11.062;2023-06-24T14:17:35;98901.00;;;34.60
7389;BMP180;3735;50.136;11.062;2023-06-24T14:20:01;98897.00;;;34.20
7389;BMP180;3735;50.136;11.062;2023-06-24T14:22:26;98895.00;;;35.10
7389;BMP180;3735;50.136;11.062;2023-06-24T14:24:52;98894.00;;;35.20
7389;BMP180;3735;50.136;11.062;2023-06-24T14:27:18;98898.00;;;36.20
7389;BMP180;3735;50.136;11.062;2023-06-24T14:29:44;98893.00;;;37.00
7389;BMP180;3735;50.136;11.062;2023-06-24T14:32:09;98893.00;;;36.60
7389;BMP180;3735;50.136;11.062;2023-06-24T14:34:35;98889.00;;;36.70
7389;BMP180;3735;50.136;11.062;2023-06-24T14:37:01;98888.00;;;36.30
7389;BMP180;3735;50.136;11.062;2023-06-24T14:39:27;98884.00;;;36.90
7389;BMP180;3735;50.136;11.062;2023-06-24T14:41:53;98884.00;;;37.40
7389;BMP180;3735;50.136;11.062;2023-06-24T14:44:19;98884.00;;;36.90
7389;BMP180;3735;50.136;11.062;2023-06-24T14:46:45;98876.00;;;36.70
7389;BMP180;3735;50.136;11.062;2023-06-24T14:49:11;98877.00;;;37.60
7389;BMP180;3735;50.136;11.062;2023-06-24T14:51:36;98885.00;;;36.80
7389;BMP180;3735;50.136;11.062;2023-06-24T14:54:02;98870.00;;;35.30